Airfield :
LOGIN :

Register | Disclaimer

   EN    FR    IT 

 










Legend :    VFR   Marginal VFR   IFR   Intensive IFR   Very Intensive IFR
Visi :
Ceiling :
>= 8 km
>= 3000ft
5 to 8 km
1000 to 3000 ft
1500m to 5 km
500 to 1000 ft
800 to 1500m
200 to 500 ft
< 800m
< 200 ft
Symbols :   Thunderstorms  Fog  Heavy snow  Heavy precipitations  Wind > 20 kt
SIGMETs :     Misc.  Thunderstorms  Icing  Turbulence  Mountain Waves  Volcanic Ashes






- Airport Elevation : 13 ft
- IATA code : OST


EBOS - Oostend bruges Int.

CURRENT METAR :
  • 081020Z 28011KT 9999 SCT026 SCT044 05/M00 Q1010 NOSIG

EXPIRED METARs :
  • 080950Z 28011KT 9999 FEW022 BKN048 05/M00 Q1010 NOSIG
  • 080920Z 29011KT 9999 FEW022 04/M01 Q1010 NOSIG
  • 080850Z 30012KT 9999 FEW022 BKN044 04/M01 Q1010 NOSIG
  • 080820Z 30011KT 9999 FEW024 BKN045 04/M01 Q1010 NOSIG
  • 080750Z 30012KT 9999 FEW024 SCT045 04/M01 Q1010 NOSIG

TAF TAF EBOS
Valid from the 08 at 06:00 until the 09 at 12:00 UTC


080500Z 0806/0912 29011KT 9999 FEW020TCU SCT030
PROB30
TEMPO 0806/0821 4500 SHRA BKN014
BECMG 0815/0818 01004KT 4000 BR SCT005 BKN008
TEMPO 0821/0909 2500 BR BKN004
PROB40
TEMPO 0900/0909 0400 FG BKN001
BECMG 0910/0912 6000 NSW SCT007 BKN015



MET'MAP, your aeronautical weather chart ! - Copyright ORBIFLY December 2007 - Disclaimer

ORBIFLY MET'MAP TEAM :

Programming & Development : Alexandra Zaïnal
Original concept : Baudouin d'Aumeries
Technical & hardware support : Manuel Goepfert
Assistance : Marc-Olivier Méhu




SOURCES & CREDITS :

   NOAA